Green Bank, West Virginia
Current Conditions -  °F | °C
As of 7:51 AM on Thursday 18 Dec 2014 (Local Time) from KEKN Reporting Station
Overcast Overcast  
Wind Chill: 18°   Ceiling: 1700
Heat Index: 25°   Visibility: 10mi
Dew Point: 20°   Wind: 6mph
Humidity: 81%   Direction: 310°NW
Pressure: 30.15"   Gusts: NA
Location:  38.42°N, 79.83°W
Report Text: KEKN 181251Z AUTO 31005KT 10SM OVC017 M04/M07 A3015 RMK AO2 SLP239 T10391067 TSNO
Loading
Personal Weather Stations






























Interactive Weather Map New forecast layout! Learn more

10-Day Weather Forecast

Advertisements
Track Severe Weather on mobile